Time;durP1;ratioP1;P1;durP2;ratioP2;P2;SDS_P1;SDS_P2;PMS_P1;PMS_P2;Temp;Humidity;BMP_temperature;BMP_pressure;BME280_temperature;BME280_humidity;BME280_pressure;Samples;Min_cycle;Max_cycle;Signal;HPM_P1;HPM_P2
2022/08/08 00:00:05;;;;;;;2.28;1.60;;;14.30;99.90;;;;;;5032460;28;20594;-67
2022/08/08 00:03:00;;;;;;;2.73;1.50;;;14.30;99.90;;;;;;5048649;28;20397;-67
2022/08/08 00:05:42;;;;;;;1.60;1.30;;;14.20;99.90;;;;;;5031942;28;20120;-67
2022/08/08 00:08:29;;;;;;;2.38;1.60;;;14.10;99.90;;;;;;5032065;28;20037;-67
2022/08/08 00:11:05;;;;;;;2.08;1.50;;;14.10;99.90;;;;;;5015443;28;20128;-67
2022/08/08 00:13:40;;;;;;;2.70;1.48;;;14.10;99.90;;;;;;5023986;28;20057;-67
2022/08/08 00:16:38;;;;;;;2.30;1.55;;;14.10;99.90;;;;;;5038797;28;20131;-67
2022/08/08 00:19:28;;;;;;;1.80;1.30;;;14.00;99.90;;;;;;5037642;28;20045;-67
2022/08/08 00:22:03;;;;;;;2.33;1.50;;;13.90;99.90;;;;;;5051713;28;20056;-67
2022/08/08 00:24:44;;;;;;;1.98;1.30;;;13.90;99.90;;;;;;5030763;28;20037;-67
2022/08/08 00:27:12;;;;;;;1.58;1.40;;;13.80;99.90;;;;;;5043776;28;20045;-67
2022/08/08 00:29:55;;;;;;;1.83;1.30;;;13.90;99.90;;;;;;5047185;28;20120;-67
2022/08/08 00:32:20;;;;;;;2.72;1.40;;;13.80;99.90;;;;;;5038990;28;20061;-67
2022/08/08 00:35:13;;;;;;;4.25;1.60;;;13.80;99.90;;;;;;5022600;28;20065;-67
2022/08/08 00:38:11;;;;;;;1.73;1.33;;;13.80;99.90;;;;;;5050130;28;20041;-67
2022/08/08 00:41:18;;;;;;;2.28;1.50;;;13.60;99.90;;;;;;5039915;28;20041;-66
2022/08/08 00:44:15;;;;;;;1.73;1.13;;;13.50;99.90;;;;;;5044571;28;20037;-66
2022/08/08 00:47:01;;;;;;;3.40;1.50;;;13.40;99.90;;;;;;5038058;28;20445;-67
2022/08/08 00:49:53;;;;;;;2.53;1.30;;;13.40;99.90;;;;;;5034667;28;20478;-66
2022/08/08 00:52:52;;;;;;;2.00;1.30;;;13.30;99.90;;;;;;5051153;28;20072;-66
2022/08/08 00:56:01;;;;;;;1.73;1.25;;;13.20;99.90;;;;;;5033758;28;20120;-67
2022/08/08 00:59:05;;;;;;;1.65;1.20;;;13.20;99.90;;;;;;5035218;28;20048;-67
2022/08/08 01:01:53;;;;;;;1.98;1.10;;;13.30;99.90;;;;;;5051968;28;20072;-67
2022/08/08 01:04:37;;;;;;;1.25;0.98;;;13.30;99.90;;;;;;5048114;28;20045;-67
2022/08/08 01:07:38;;;;;;;1.08;0.98;;;13.30;99.90;;;;;;5055068;28;20094;-67
2022/08/08 01:10:37;;;;;;;0.80;0.75;;;13.30;99.90;;;;;;5054619;28;20045;-66
2022/08/08 01:13:40;;;;;;;1.00;0.73;;;13.30;99.90;;;;;;5037269;28;20456;-67
2022/08/08 01:16:24;;;;;;;;;;;13.20;99.90;;;;;;5055384;28;20138;-67
2022/08/08 01:19:38;;;;;;;4.82;0.80;;;13.20;99.90;;;;;;5085208;28;20392;-67
2022/08/08 01:22:25;;;;;;;1.00;0.73;;;13.20;99.90;;;;;;5055151;28;20040;-67
2022/08/08 01:25:15;;;;;;;1.40;0.90;;;13.20;99.90;;;;;;5053111;28;20037;-67
2022/08/08 01:27:59;;;;;;;1.42;1.00;;;13.20;99.90;;;;;;5054341;28;20045;-67
2022/08/08 01:30:34;;;;;;;0.80;0.80;;;13.10;99.90;;;;;;5052799;28;20408;-67
2022/08/08 01:33:40;;;;;;;0.93;0.80;;;13.10;99.90;;;;;;5054708;28;20040;-67
2022/08/08 01:37:04;;;;;;;2.05;1.15;;;13.10;99.90;;;;;;5087612;28;20040;-67
2022/08/08 01:39:40;;;;;;;2.22;1.30;;;13.10;99.90;;;;;;5025463;28;20045;-67
2022/08/08 01:42:40;;;;;;;1.00;0.85;;;13.00;99.90;;;;;;5070972;28;20037;-67
2022/08/08 01:45:53;;;;;;;1.02;0.93;;;13.10;99.90;;;;;;5034266;28;20052;-67
2022/08/08 01:48:21;;;;;;;3.00;0.90;;;13.00;99.90;;;;;;5035022;28;20057;-67
2022/08/08 01:50:58;;;;;;;1.23;0.95;;;12.90;99.90;;;;;;5050011;28;20506;-67
2022/08/08 01:53:43;;;;;;;0.52;0.52;;;12.90;99.90;;;;;;5034545;28;20443;-67
2022/08/08 01:56:45;;;;;;;0.90;0.70;;;12.90;99.90;;;;;;5037958;28;20041;-67
2022/08/08 01:59:22;;;;;;;1.00;0.90;;;12.90;99.90;;;;;;5050898;28;20124;-67
2022/08/08 02:01:55;;;;;;;1.00;0.90;;;12.80;99.90;;;;;;5052710;28;20059;-67
2022/08/08 02:04:33;;;;;;;1.52;1.10;;;12.80;99.90;;;;;;5047475;28;20037;-67
2022/08/08 02:07:11;;;;;;;1.20;0.80;;;12.70;99.90;;;;;;5034153;28;20037;-67
2022/08/08 02:09:55;;;;;;;1.60;0.90;;;12.70;99.90;;;;;;5060429;28;20041;-67
2022/08/08 02:12:31;;;;;;;1.50;1.00;;;12.60;99.90;;;;;;5022082;28;20029;-67
2022/08/08 02:15:00;;;;;;;1.73;0.70;;;12.60;99.90;;;;;;5053809;28;20045;-67
2022/08/08 02:17:35;;;;;;;0.50;0.50;;;12.60;99.90;;;;;;5049669;28;20074;-67
2022/08/08 02:20:06;;;;;;;0.45;0.45;;;12.70;99.90;;;;;;5037219;28;20134;-67
2022/08/08 02:22:54;;;;;;;0.50;0.50;;;12.70;99.90;;;;;;5032325;28;20045;-67
2022/08/08 02:25:21;;;;;;;0.52;0.52;;;12.70;99.90;;;;;;5053041;28;20083;-67
2022/08/08 02:28:32;;;;;;;0.80;0.80;;;12.60;99.90;;;;;;5053870;28;20591;-67
2022/08/08 02:31:20;;;;;;;1.02;0.90;;;12.60;99.90;;;;;;5034573;28;20409;-67
2022/08/08 02:33:59;;;;;;;1.63;0.90;;;12.60;99.90;;;;;;5068708;28;20037;-67
2022/08/08 02:37:01;;;;;;;1.30;1.00;;;12.60;99.90;;;;;;5034068;28;20041;-67
2022/08/08 02:40:04;;;;;;;2.58;1.00;;;12.60;99.90;;;;;;5032769;28;20075;-67
2022/08/08 02:42:49;;;;;;;2.70;1.38;;;12.60;99.90;;;;;;5050204;28;20056;-67
2022/08/08 02:45:38;;;;;;;2.78;1.33;;;12.60;99.90;;;;;;5033252;28;20044;-67
2022/08/08 02:48:36;;;;;;;1.40;1.10;;;12.50;99.90;;;;;;5038135;28;20119;-67
2022/08/08 02:51:59;;;;;;;2.10;1.40;;;12.50;99.90;;;;;;5053090;28;20041;-67
2022/08/08 02:55:01;;;;;;;3.75;1.70;;;12.50;99.90;;;;;;5032500;28;20037;-67
2022/08/08 02:58:04;;;;;;;2.60;1.50;;;12.40;99.90;;;;;;5042400;28;20041;-67
2022/08/08 03:00:48;;;;;;;;;;;12.10;99.90;;;;;;5037296;28;20148;-67
2022/08/08 03:03:13;;;;;;;2.92;1.30;;;12.00;99.90;;;;;;5048693;28;19920;-67
2022/08/08 03:05:51;;;;;;;3.40;1.67;;;11.90;99.90;;;;;;5055428;28;20052;-67
2022/08/08 03:08:26;;;;;;;1.88;1.33;;;11.90;99.90;;;;;;5048172;28;20051;-67
2022/08/08 03:11:39;;;;;;;1.42;1.10;;;11.80;99.90;;;;;;5027940;28;20472;-67
2022/08/08 03:14:30;;;;;;;1.63;1.20;;;11.90;99.90;;;;;;5029881;28;20053;-67
2022/08/08 03:17:24;;;;;;;3.35;1.60;;;11.90;99.90;;;;;;5048926;28;20091;-67
2022/08/08 03:20:05;;;;;;;2.47;1.60;;;11.90;99.90;;;;;;5032675;28;20049;-67
2022/08/08 03:22:31;;;;;;;4.57;1.80;;;11.90;99.90;;;;;;5056418;28;20080;-67
2022/08/08 03:25:05;;;;;;;2.80;1.63;;;12.00;99.90;;;;;;5052525;28;20041;-67
2022/08/08 03:27:38;;;;;;;3.13;1.75;;;12.00;99.90;;;;;;5051907;28;20501;-66
2022/08/08 03:30:10;;;;;;;3.92;1.70;;;12.00;99.90;;;;;;5052622;28;20037;-67
2022/08/08 03:35:22;;;;;;;2.95;1.75;;;12.10;99.90;;;;;;5032607;28;20041;-67
2022/08/08 03:37:48;;;;;;;4.20;1.70;;;12.00;99.90;;;;;;5032177;28;20455;-67
2022/08/08 03:40:16;;;;;;;2.28;1.45;;;11.90;99.90;;;;;;5032337;28;20116;-67
2022/08/08 03:42:42;;;;;;;2.95;1.70;;;12.00;99.90;;;;;;5038589;28;20040;-67
2022/08/08 03:45:24;;;;;;;2.55;1.30;;;11.90;99.90;;;;;;5052039;28;20044;-67
2022/08/08 03:47:58;;;;;;;3.78;1.40;;;12.00;99.90;;;;;;5044145;28;20041;-67
2022/08/08 03:50:25;;;;;;;2.67;1.40;;;12.00;99.90;;;;;;5048915;28;20033;-67
2022/08/08 03:52:52;;;;;;;2.08;1.50;;;12.00;99.90;;;;;;5053505;28;20051;-67
2022/08/08 03:55:19;;;;;;;2.75;1.55;;;11.90;99.90;;;;;;5051294;28;20037;-68
2022/08/08 03:57:53;;;;;;;2.63;1.50;;;11.90;99.90;;;;;;5052004;28;20080;-67
2022/08/08 04:00:22;;;;;;;2.47;1.48;;;11.90;99.90;;;;;;5035049;28;20124;-67
2022/08/08 04:03:05;;;;;;;2.75;1.35;;;11.90;99.90;;;;;;5033052;28;20056;-67
2022/08/08 04:05:36;;;;;;;3.10;1.27;;;11.90;99.90;;;;;;5050972;28;20029;-67
2022/08/08 04:08:04;;;;;;;1.95;1.40;;;11.90;99.90;;;;;;5044349;28;20068;-67
2022/08/08 04:10:31;;;;;;;1.88;1.20;;;11.80;99.90;;;;;;5050909;28;20378;-67
2022/08/08 04:12:57;;;;;;;2.70;1.38;;;11.80;99.90;;;;;;5030954;28;20514;-67
2022/08/08 04:15:23;;;;;;;1.50;1.20;;;11.60;99.90;;;;;;5052278;28;20119;-67
2022/08/08 04:17:49;;;;;;;1.80;1.20;;;11.60;99.90;;;;;;5038617;28;20048;-67
2022/08/08 04:20:14;;;;;;;2.50;1.55;;;11.60;99.90;;;;;;5029257;28;20091;-67
2022/08/08 04:22:40;;;;;;;2.83;1.58;;;11.60;99.90;;;;;;5031208;28;20045;-67
2022/08/08 04:25:07;;;;;;;2.70;1.50;;;11.70;99.90;;;;;;5050691;28;20119;-67
2022/08/08 04:27:34;;;;;;;2.58;1.60;;;11.70;99.90;;;;;;5047029;28;20033;-67
2022/08/08 04:30:05;;;;;;;2.95;1.75;;;11.70;99.90;;;;;;5045232;28;20051;-67
2022/08/08 04:32:31;;;;;;;2.53;1.38;;;11.70;99.90;;;;;;5015090;28;20037;-67
2022/08/08 04:34:57;;;;;;;2.55;1.67;;;11.70;99.90;;;;;;5081333;28;20033;-67
2022/08/08 04:37:22;;;;;;;3.88;1.60;;;11.70;99.90;;;;;;5050143;28;20029;-67
2022/08/08 04:39:48;;;;;;;2.47;1.60;;;11.70;99.90;;;;;;5050089;28;20040;-67
2022/08/08 04:42:14;;;;;;;1.98;1.40;;;11.70;99.90;;;;;;5035132;28;20033;-67
2022/08/08 04:44:40;;;;;;;2.25;1.48;;;11.70;99.90;;;;;;5049545;28;20045;-67
2022/08/08 04:47:06;;;;;;;2.83;1.70;;;11.70;99.90;;;;;;5034972;28;20035;-67
2022/08/08 04:49:32;;;;;;;3.83;1.80;;;11.70;99.90;;;;;;5065835;28;20040;-67
2022/08/08 04:51:58;;;;;;;2.50;1.50;;;11.70;99.90;;;;;;5039774;28;20042;-67
2022/08/08 04:54:24;;;;;;;2.97;1.58;;;11.60;99.90;;;;;;5051465;28;20041;-67
2022/08/08 04:56:50;;;;;;;3.58;1.70;;;11.60;99.90;;;;;;5050311;28;20045;-67
2022/08/08 04:59:15;;;;;;;3.47;1.80;;;11.70;99.90;;;;;;5051666;28;20045;-67
2022/08/08 05:01:41;;;;;;;4.07;1.90;;;11.70;99.90;;;;;;5050253;28;20041;-67
2022/08/08 05:04:06;;;;;;;3.38;1.85;;;11.70;99.90;;;;;;5034744;28;20041;-67
2022/08/08 05:06:32;;;;;;;5.95;1.90;;;11.80;99.90;;;;;;5033901;28;20049;-67
2022/08/08 05:08:58;;;;;;;2.63;1.80;;;11.70;99.90;;;;;;5052131;28;20577;-67
2022/08/08 05:11:24;;;;;;;3.83;1.60;;;11.80;99.90;;;;;;5033929;28;20504;-67
2022/08/08 05:13:50;;;;;;;4.28;1.90;;;11.80;99.90;;;;;;5046713;28;20077;-67
2022/08/08 05:16:15;;;;;;;4.70;2.30;;;11.80;99.90;;;;;;5048168;28;20053;-67
2022/08/08 05:18:41;;;;;;;4.45;2.10;;;11.80;99.90;;;;;;5033165;28;20102;-67
2022/08/08 05:21:10;;;;;;;3.47;2.08;;;11.80;99.90;;;;;;5031559;28;20052;-67
2022/08/08 05:23:35;;;;;;;3.78;1.83;;;11.80;99.90;;;;;;5045621;28;20460;-67
2022/08/08 05:26:02;;;;;;;4.63;1.80;;;11.90;99.90;;;;;;5035339;28;20053;-67
2022/08/08 05:28:28;;;;;;;3.10;1.95;;;11.90;99.90;;;;;;5046028;28;20046;-67
2022/08/08 05:30:54;;;;;;;3.60;1.70;;;11.90;99.90;;;;;;5054978;28;20200;-67
2022/08/08 05:33:20;;;;;;;3.42;1.90;;;11.90;99.90;;;;;;5053690;28;20131;-67
2022/08/08 05:35:46;;;;;;;4.20;1.98;;;12.00;99.90;;;;;;5054503;28;20053;-67
2022/08/08 05:38:14;;;;;;;3.20;1.70;;;12.00;99.90;;;;;;5026276;28;20087;-67
2022/08/08 05:40:51;;;;;;;2.72;1.45;;;12.00;99.90;;;;;;5053525;28;20136;-67
2022/08/08 05:43:26;;;;;;;3.65;1.60;;;12.10;99.90;;;;;;5032409;28;20037;-67
2022/08/08 05:45:57;;;;;;;3.28;1.65;;;12.10;99.90;;;;;;5054588;28;20490;-67
2022/08/08 05:48:23;;;;;;;3.40;1.63;;;12.20;99.90;;;;;;5052088;28;20033;-67
2022/08/08 05:50:49;;;;;;;3.47;1.90;;;12.20;99.90;;;;;;5054308;28;20120;-67
2022/08/08 05:53:17;;;;;;;3.22;2.03;;;12.30;99.90;;;;;;5053638;28;20040;-67
2022/08/08 05:55:44;;;;;;;4.75;2.50;;;12.30;99.90;;;;;;5054111;28;20040;-67
2022/08/08 05:58:12;;;;;;;4.47;2.22;;;12.30;99.90;;;;;;5036785;28;20045;-67
2022/08/08 06:00:38;;;;;;;3.63;2.20;;;12.30;99.90;;;;;;5053712;28;20052;-68
2022/08/08 06:03:10;;;;;;;5.80;2.53;;;12.40;99.90;;;;;;5035758;28;20041;-67
2022/08/08 06:05:45;;;;;;;6.50;2.92;;;12.40;99.90;;;;;;5043620;28;20087;-67
2022/08/08 06:08:13;;;;;;;3.92;2.17;;;12.50;99.90;;;;;;5033790;28;20039;-67
2022/08/08 06:10:39;;;;;;;5.93;2.50;;;12.70;99.90;;;;;;5042208;28;20037;-67
2022/08/08 06:13:07;;;;;;;8.30;2.65;;;12.80;99.90;;;;;;5053567;28;20414;-67
2022/08/08 06:15:35;;;;;;;11.00;3.72;;;13.00;99.90;;;;;;5069681;28;20049;-67
2022/08/08 06:18:02;;;;;;;7.78;3.33;;;13.20;99.90;;;;;;5050886;28;20055;-67
2022/08/08 06:20:28;;;;;;;5.07;3.03;;;13.30;99.90;;;;;;5040710;28;20124;-67
2022/08/08 06:22:54;;;;;;;5.70;3.08;;;13.40;99.90;;;;;;5054612;28;20456;-67
2022/08/08 06:25:20;;;;;;;7.13;3.70;;;13.60;99.90;;;;;;5053106;28;20116;-67
2022/08/08 06:27:52;;;;;;;6.22;3.53;;;13.70;99.90;;;;;;5033627;28;20482;-67
2022/08/08 06:30:21;;;;;;;7.90;3.80;;;13.90;99.90;;;;;;5054753;28;20037;-67
2022/08/08 06:32:58;;;;;;;6.47;3.53;;;14.00;99.90;;;;;;5059798;28;20037;-67
2022/08/08 06:35:24;;;;;;;5.53;3.20;;;14.10;99.90;;;;;;5048764;28;20088;-67
2022/08/08 06:37:57;;;;;;;7.00;3.65;;;14.10;99.90;;;;;;5040617;28;20043;-67
2022/08/08 06:40:28;;;;;;;7.35;4.10;;;14.20;99.90;;;;;;5033684;28;20069;-67
2022/08/08 06:43:04;;;;;;;8.20;4.10;;;14.20;99.90;;;;;;5083195;28;20037;-67
2022/08/08 06:45:32;;;;;;;6.63;3.75;;;14.20;99.90;;;;;;5035382;28;20071;-67
2022/08/08 06:47:59;;;;;;;9.20;4.00;;;14.30;99.90;;;;;;5031686;28;20091;-67
2022/08/08 06:50:25;;;;;;;8.25;3.80;;;14.40;99.90;;;;;;5033351;28;20029;-67
2022/08/08 06:52:51;;;;;;;7.63;4.15;;;14.50;99.90;;;;;;5028653;28;20505;-67
2022/08/08 06:55:17;;;;;;;6.70;3.70;;;14.70;99.90;;;;;;5036052;28;20120;-67
2022/08/08 06:57:43;;;;;;;8.63;4.35;;;14.90;99.90;;;;;;5016774;28;20490;-67
2022/08/08 07:00:09;;;;;;;8.90;4.32;;;15.20;99.90;;;;;;5017157;28;20044;-67
2022/08/08 07:02:41;;;;;;;7.70;4.18;;;15.50;99.90;;;;;;5053727;28;20037;-67
2022/08/08 07:05:09;;;;;;;9.65;4.18;;;15.70;99.90;;;;;;5031504;28;20029;-67
2022/08/08 07:07:52;;;;;;;10.52;4.03;;;15.80;99.90;;;;;;5043072;28;20117;-67
2022/08/08 07:10:20;;;;;;;7.70;3.92;;;16.10;99.90;;;;;;5047725;28;20168;-68
2022/08/08 07:13:00;;;;;;;10.48;4.03;;;16.30;99.90;;;;;;5025877;28;20091;-67
2022/08/08 07:15:37;;;;;;;7.18;3.65;;;16.50;99.90;;;;;;5049099;28;20041;-67
2022/08/08 07:18:07;;;;;;;10.75;3.92;;;16.50;99.90;;;;;;5032398;28;20037;-68
2022/08/08 07:20:38;;;;;;;8.52;3.95;;;16.60;99.90;;;;;;5031832;28;20367;-68
2022/08/08 07:23:21;;;;;;;8.93;3.70;;;16.60;99.90;;;;;;5046264;28;20410;-68
2022/08/08 07:25:50;;;;;;;11.35;3.22;;;16.70;99.90;;;;;;5037267;28;20048;-72
2022/08/08 07:28:18;;;;;;;8.93;3.75;;;16.80;99.90;;;;;;5065520;28;20045;-72
2022/08/08 07:30:45;;;;;;;7.90;3.35;;;16.80;99.90;;;;;;5031834;28;20112;-67
2022/08/08 07:33:13;;;;;;;7.65;3.17;;;17.00;99.90;;;;;;5051243;28;20041;-68
2022/08/08 07:35:39;;;;;;;7.40;3.42;;;17.10;99.90;;;;;;5026890;28;20080;-68
2022/08/08 07:38:05;;;;;;;6.55;3.00;;;17.20;99.90;;;;;;5034629;28;20072;-68
2022/08/08 07:40:31;;;;;;;8.02;2.58;;;17.30;99.90;;;;;;5042254;28;20040;-68
2022/08/08 07:42:59;;;;;;;8.85;2.70;;;17.40;99.90;;;;;;5017407;28;20390;-68
2022/08/08 07:45:25;;;;;;;5.85;2.53;;;17.50;99.90;;;;;;5047601;28;20038;-68
2022/08/08 07:47:53;;;;;;;8.45;2.80;;;17.60;99.90;;;;;;5036368;28;20036;-68
2022/08/08 07:50:20;;;;;;;7.25;2.40;;;17.90;99.90;;;;;;5041099;28;20040;-68
2022/08/08 07:52:50;;;;;;;6.95;2.35;;;17.90;99.90;;;;;;5051030;28;20044;-68
2022/08/08 07:55:34;;;;;;;7.10;2.38;;;18.00;99.90;;;;;;5050476;28;20072;-68
2022/08/08 07:58:20;;;;;;;8.32;2.60;;;18.00;99.90;;;;;;5031583;28;20045;-67
2022/08/08 08:00:51;;;;;;;10.77;2.50;;;18.00;99.90;;;;;;5043194;28;20037;-68
2022/08/08 08:03:31;;;;;;;7.87;2.50;;;17.90;99.90;;;;;;5038773;28;20071;-68
2022/08/08 08:05:58;;;;;;;10.25;2.80;;;18.10;99.90;;;;;;5050808;28;20448;-68
2022/08/08 08:08:55;;;;;;;8.30;2.35;;;18.10;99.90;;;;;;5046982;28;20033;-68
2022/08/08 08:11:24;;;;;;;6.85;2.20;;;18.10;99.90;;;;;;5021118;28;20052;-68
2022/08/08 08:14:01;;;;;;;5.38;1.92;;;18.10;99.90;;;;;;5030374;28;20057;-68
2022/08/08 08:16:31;;;;;;;10.98;2.92;;;18.20;99.90;;;;;;5030698;28;20046;-68
2022/08/08 08:19:08;;;;;;;13.52;4.10;;;18.20;99.90;;;;;;5031267;28;20047;-68
2022/08/08 08:21:45;;;;;;;5.75;1.90;;;18.40;99.90;;;;;;5053374;28;20087;-68
2022/08/08 08:24:12;;;;;;;4.40;1.80;;;18.60;99.90;;;;;;5021642;28;20045;-68
2022/08/08 08:26:38;;;;;;;5.40;1.85;;;18.70;99.90;;;;;;5051603;28;20052;-68
2022/08/08 08:29:04;;;;;;;6.30;1.85;;;18.70;99.90;;;;;;5042463;28;20033;-68
2022/08/08 08:31:30;;;;;;;8.13;2.00;;;18.80;99.90;;;;;;5044410;28;20160;-68
2022/08/08 08:33:56;;;;;;;11.00;2.28;;;18.80;99.90;;;;;;5062719;28;20052;-68
2022/08/08 08:36:23;;;;;;;5.40;1.95;;;18.90;99.90;;;;;;5046622;28;20118;-68
2022/08/08 08:38:49;;;;;;;5.03;1.80;;;19.00;99.90;;;;;;5046716;28;20132;-68
2022/08/08 08:41:17;;;;;;;4.90;1.67;;;18.90;99.90;;;;;;5030786;28;20132;-68
2022/08/08 08:43:45;;;;;;;6.50;1.85;;;19.00;99.90;;;;;;5062234;28;20397;-68
2022/08/08 08:46:11;;;;;;;5.75;1.70;;;19.00;99.90;;;;;;5051000;28;20037;-68
2022/08/08 08:48:40;;;;;;;7.57;1.70;;;19.00;99.90;;;;;;5031156;28;20401;-68
2022/08/08 08:51:10;;;;;;;5.70;1.70;;;18.90;99.90;;;;;;5027411;28;20041;-68
2022/08/08 08:53:42;;;;;;;4.95;1.80;;;18.80;99.90;;;;;;5040471;28;20045;-68
2022/08/08 08:56:11;;;;;;;4.72;1.70;;;18.80;99.90;;;;;;5034316;28;20041;-68
2022/08/08 08:58:43;;;;;;;4.72;1.63;;;19.00;99.90;;;;;;5051462;28;20077;-68
2022/08/08 09:01:10;;;;;;;;;;;19.10;99.90;;;;;;5046097;28;20037;-68
2022/08/08 09:03:40;;;;;;;3.80;1.73;;;19.30;99.90;;;;;;5078811;28;19921;-68
2022/08/08 09:06:09;;;;;;;4.80;1.60;;;19.30;99.90;;;;;;5034991;28;20077;-68
2022/08/08 09:08:38;;;;;;;5.20;1.40;;;19.40;99.90;;;;;;5068199;28;20033;-68
2022/08/08 09:11:08;;;;;;;4.82;1.40;;;19.60;99.90;;;;;;5064047;28;20069;-68
2022/08/08 09:13:36;;;;;;;6.28;1.70;;;19.80;99.90;;;;;;5050884;28;20049;-68
2022/08/08 09:16:02;;;;;;;4.75;1.33;;;20.00;99.90;;;;;;5034210;28;20493;-68
2022/08/08 09:18:29;;;;;;;5.10;1.50;;;20.10;99.90;;;;;;5043345;28;20075;-68
2022/08/08 09:20:56;;;;;;;4.45;2.03;;;20.30;99.90;;;;;;5056379;28;20045;-68
2022/08/08 09:23:22;;;;;;;5.65;1.35;;;20.40;99.90;;;;;;5068707;28;20045;-68
2022/08/08 09:25:59;;;;;;;5.57;1.30;;;20.60;99.90;;;;;;5051922;28;20041;-68
2022/08/08 09:28:28;;;;;;;3.40;1.10;;;20.70;99.90;;;;;;5034006;28;20044;-68
2022/08/08 09:31:01;;;;;;;3.85;1.20;;;20.80;99.90;;;;;;5049679;28;20033;-68
2022/08/08 09:33:29;;;;;;;5.82;1.60;;;20.90;99.90;;;;;;5052905;28;20401;-68
2022/08/08 09:35:56;;;;;;;4.60;1.20;;;21.00;99.90;;;;;;5051783;28;20106;-68
2022/08/08 09:38:42;;;;;;;3.75;1.10;;;21.00;99.90;;;;;;5042154;28;20048;-68
2022/08/08 09:41:10;;;;;;;5.85;1.42;;;21.20;99.90;;;;;;5020879;28;20041;-68
2022/08/08 09:43:49;;;;;;;3.35;1.10;;;21.30;99.90;;;;;;5065267;28;20041;-68
2022/08/08 09:46:16;;;;;;;4.28;1.17;;;21.30;99.90;;;;;;5035059;28;20041;-68
2022/08/08 09:48:44;;;;;;;3.30;1.20;;;21.50;99.90;;;;;;5037038;28;20124;-68
2022/08/08 09:51:19;;;;;;;4.85;1.20;;;21.50;99.90;;;;;;5051758;28;20524;-68
2022/08/08 09:53:51;;;;;;;5.32;1.48;;;21.50;99.90;;;;;;5054176;28;20110;-68
2022/08/08 09:56:19;;;;;;;3.55;1.20;;;21.40;99.90;;;;;;5037653;28;20401;-68
2022/08/08 09:58:59;;;;;;;2.75;1.10;;;21.20;99.90;;;;;;5068917;28;20493;-68
2022/08/08 10:01:25;;;;;;;3.67;1.05;;;21.10;99.90;;;;;;5060923;28;20159;-68
2022/08/08 10:03:56;;;;;;;5.05;1.08;;;21.00;99.90;;;;;;5037240;28;20042;-68
2022/08/08 10:06:21;;;;;;;3.92;1.10;;;20.90;99.90;;;;;;5019077;28;20397;-68
2022/08/08 10:08:48;;;;;;;3.60;1.30;;;20.80;99.90;;;;;;5025418;28;20037;-68
2022/08/08 10:11:19;;;;;;;4.72;1.40;;;20.70;99.90;;;;;;5050779;28;20481;-68
2022/08/08 10:14:01;;;;;;;6.30;1.33;;;20.60;99.90;;;;;;5033228;28;20061;-68
2022/08/08 10:16:41;;;;;;;3.47;1.00;;;20.50;99.90;;;;;;5046685;28;20041;-68
2022/08/08 10:19:10;;;;;;;1.95;0.95;;;20.40;99.90;;;;;;5077586;28;20045;-68
2022/08/08 10:21:37;;;;;;;2.63;1.13;;;20.30;99.90;;;;;;5052208;28;20048;-68
2022/08/08 10:24:10;;;;;;;3.17;1.15;;;20.30;99.90;;;;;;5047149;28;20512;-68
2022/08/08 10:26:48;;;;;;;4.32;1.10;;;20.20;99.90;;;;;;5049191;28;20575;-68
2022/08/08 10:29:13;;;;;;;4.47;1.08;;;20.20;99.90;;;;;;5036419;28;20079;-68
2022/08/08 10:34:27;;;;;;;3.67;1.13;;;20.10;99.90;;;;;;5062471;28;20497;-68
2022/08/08 10:36:55;;;;;;;2.45;1.02;;;20.10;99.90;;;;;;5034272;28;20049;-68
2022/08/08 10:39:23;;;;;;;4.50;1.25;;;20.10;99.90;;;;;;5052687;28;20048;-68
2022/08/08 10:41:58;;;;;;;4.32;1.10;;;20.10;99.90;;;;;;5032898;28;20119;-68
2022/08/08 10:44:29;;;;;;;2.13;1.10;;;20.10;99.90;;;;;;5027199;28;20041;-68
2022/08/08 10:46:55;;;;;;;4.10;1.05;;;20.10;99.90;;;;;;5016403;28;20486;-68
2022/08/08 10:49:22;;;;;;;2.92;1.30;;;20.10;99.90;;;;;;5065932;28;20095;-68
2022/08/08 10:51:48;;;;;;;2.45;1.05;;;20.20;99.90;;;;;;5038462;28;20077;-68
2022/08/08 10:54:21;;;;;;;3.10;1.10;;;20.20;99.90;;;;;;5072822;28;20506;-68
2022/08/08 10:56:58;;;;;;;4.70;1.10;;;20.20;99.90;;;;;;5026148;28;20390;-68
2022/08/08 10:59:25;;;;;;;1.92;1.17;;;20.30;99.90;;;;;;5029610;28;20392;-68
2022/08/08 11:01:51;;;;;;;3.28;1.20;;;20.40;99.90;;;;;;5040592;28;20051;-68
2022/08/08 11:04:17;;;;;;;3.88;1.15;;;20.50;99.90;;;;;;5029669;28;20405;-68
2022/08/08 11:06:43;;;;;;;3.17;1.45;;;20.50;99.90;;;;;;5044501;28;20408;-68
2022/08/08 11:09:11;;;;;;;5.38;1.40;;;20.60;99.90;;;;;;5046357;28;20063;-68
2022/08/08 11:11:41;;;;;;;3.78;1.42;;;20.50;99.90;;;;;;5033233;28;20096;-68
2022/08/08 11:14:09;;;;;;;3.05;1.35;;;20.60;99.90;;;;;;5058232;28;20057;-68
2022/08/08 11:16:38;;;;;;;3.33;1.20;;;20.70;99.90;;;;;;5039030;28;20099;-68
2022/08/08 11:19:04;;;;;;;4.80;1.63;;;20.70;99.90;;;;;;5035484;28;20045;-68
2022/08/08 11:21:33;;;;;;;2.53;1.10;;;20.80;99.90;;;;;;5048733;28;20043;-68
2022/08/08 11:24:05;;;;;;;5.07;1.50;;;20.80;99.90;;;;;;5016077;28;20457;-68
2022/08/08 11:26:35;;;;;;;6.47;1.80;;;20.80;99.90;;;;;;5044359;28;20037;-68
2022/08/08 11:29:03;;;;;;;4.20;1.10;;;20.80;99.90;;;;;;5042461;28;20077;-68
2022/08/08 11:31:40;;;;;;;4.57;1.40;;;20.80;99.90;;;;;;5050641;28;20555;-68
2022/08/08 11:34:07;;;;;;;2.50;1.08;;;20.80;99.90;;;;;;5045390;28;20037;-68
2022/08/08 11:36:36;;;;;;;2.67;1.20;;;20.80;99.90;;;;;;5032082;28;20049;-69
2022/08/08 11:39:02;;;;;;;2.95;1.10;;;20.80;99.90;;;;;;5032425;28;20033;-68
2022/08/08 11:41:29;;;;;;;3.55;1.02;;;20.70;99.90;;;;;;5022212;28;20077;-68
2022/08/08 11:43:55;;;;;;;6.13;1.30;;;20.60;99.90;;;;;;5031613;28;20073;-68
2022/08/08 11:46:24;;;;;;;3.65;1.15;;;20.60;99.90;;;;;;5032431;28;20040;-69
2022/08/08 11:48:51;;;;;;;1.58;1.05;;;20.50;99.90;;;;;;5031321;28;20773;-68
2022/08/08 11:51:18;;;;;;;3.85;1.05;;;20.50;99.90;;;;;;5015280;28;20045;-68
2022/08/08 11:53:45;;;;;;;2.60;0.90;;;20.40;99.90;;;;;;5055517;28;20509;-68
2022/08/08 11:56:22;;;;;;;2.35;0.98;;;20.40;99.90;;;;;;5033633;28;20444;-68
2022/08/08 11:58:49;;;;;;;2.65;1.20;;;20.30;99.90;;;;;;5039034;28;20405;-68
2022/08/08 12:01:15;;;;;;;3.50;1.17;;;20.30;99.90;;;;;;5032362;28;20099;-68
2022/08/08 12:03:46;;;;;;;2.25;1.08;;;20.30;99.90;;;;;;5049900;28;20041;-68
2022/08/08 12:06:13;;;;;;;2.10;1.10;;;20.30;99.90;;;;;;5047454;28;20104;-68
2022/08/08 12:08:40;;;;;;;3.15;1.00;;;20.20;99.90;;;;;;5015256;28;20393;-69
2022/08/08 12:11:18;;;;;;;4.25;1.60;;;20.20;99.90;;;;;;5036683;28;20037;-68
2022/08/08 12:13:44;;;;;;;5.10;1.40;;;20.20;99.90;;;;;;5027405;28;20053;-68
2022/08/08 12:16:11;;;;;;;2.60;1.10;;;20.20;99.90;;;;;;5030829;28;20494;-68
2022/08/08 12:18:47;;;;;;;3.92;1.58;;;20.10;99.90;;;;;;5036453;28;20048;-69
2022/08/08 12:21:28;;;;;;;3.15;1.17;;;20.10;99.90;;;;;;5032118;28;20029;-68
2022/08/08 12:24:07;;;;;;;3.90;1.23;;;20.10;99.90;;;;;;5031232;28;20037;-68
2022/08/08 12:26:40;;;;;;;3.33;1.10;;;20.10;99.90;;;;;;5045078;28;20455;-68
2022/08/08 12:29:31;;;;;;;4.63;1.25;;;20.10;99.90;;;;;;5051626;28;20082;-68
2022/08/08 12:32:07;;;;;;;4.00;1.20;;;20.10;99.90;;;;;;5059351;28;20037;-68
2022/08/08 12:34:35;;;;;;;3.38;1.40;;;20.00;99.90;;;;;;5036035;28;20463;-68
2022/08/08 12:37:06;;;;;;;4.25;1.25;;;20.10;99.90;;;;;;5038481;28;20090;-68
2022/08/08 12:39:32;;;;;;;4.23;1.30;;;20.10;99.90;;;;;;5038856;28;20123;-68
2022/08/08 12:41:59;;;;;;;7.03;1.20;;;20.00;99.90;;;;;;5037870;28;20129;-68
2022/08/08 12:44:30;;;;;;;4.55;1.30;;;20.10;99.90;;;;;;5034693;28;20033;-68
2022/08/08 12:46:57;;;;;;;3.55;1.40;;;20.10;99.90;;;;;;5081090;28;20036;-68
2022/08/08 12:49:27;;;;;;;4.03;1.58;;;20.10;99.90;;;;;;5034884;28;20069;-68
2022/08/08 12:51:54;;;;;;;4.25;1.17;;;20.10;99.90;;;;;;5068107;28;20037;-69
2022/08/08 12:54:25;;;;;;;3.00;1.38;;;20.10;99.90;;;;;;5055163;28;20102;-68
2022/08/08 12:56:51;;;;;;;3.72;1.20;;;20.10;99.90;;;;;;5025508;28;20056;-68
2022/08/08 12:59:17;;;;;;;5.55;1.58;;;20.10;99.90;;;;;;5034845;28;20041;-68
2022/08/08 13:01:51;;;;;;;3.63;1.20;;;20.20;99.90;;;;;;5037224;28;20037;-68
2022/08/08 13:04:18;;;;;;;6.90;1.77;;;20.10;99.90;;;;;;5050830;28;20045;-68
2022/08/08 13:06:59;;;;;;;4.03;1.27;;;20.10;99.90;;;;;;5045106;28;20043;-68
2022/08/08 13:09:53;;;;;;;3.17;1.10;;;20.10;99.90;;;;;;5034624;28;20045;-68
2022/08/08 13:12:28;;;;;;;4.57;1.23;;;20.20;99.90;;;;;;5033706;28;20049;-68
2022/08/08 13:14:55;;;;;;;3.83;1.40;;;20.20;99.90;;;;;;5056530;28;20068;-68
2022/08/08 13:17:22;;;;;;;4.20;1.65;;;20.20;99.90;;;;;;5033824;28;20055;-68
2022/08/08 13:19:48;;;;;;;5.93;1.40;;;20.20;99.90;;;;;;5045098;28;20091;-68
2022/08/08 13:22:17;;;;;;;5.47;1.60;;;20.30;99.90;;;;;;5038846;28;20037;-68
2022/08/08 13:24:43;;;;;;;4.30;1.20;;;20.20;99.90;;;;;;5063473;28;20051;-73
2022/08/08 13:27:11;;;;;;;4.68;1.20;;;20.20;99.90;;;;;;5033253;28;20030;-73